createdAt,value
2018-01-14T00:00:16.411Z,11.08
2018-01-14T00:01:16.882Z,11.07
2018-01-14T00:02:17.352Z,11.07
2018-01-14T00:03:17.823Z,11.07
2018-01-14T00:04:18.293Z,11.07
2018-01-14T00:05:18.759Z,11.07
2018-01-14T00:06:19.237Z,11.07
2018-01-14T00:07:19.705Z,11.05
2018-01-14T00:08:20.176Z,11.05
2018-01-14T00:09:20.641Z,11.04
2018-01-14T00:10:21.116Z,11.05
2018-01-14T00:11:33.172Z,11.05
2018-01-14T00:12:22.057Z,11.02
2018-01-14T00:13:22.534Z,11.01
2018-01-14T00:14:23.003Z,11.01
2018-01-14T00:15:23.469Z,11.00
2018-01-14T00:16:23.940Z,10.99
2018-01-14T00:18:24.880Z,11.00
2018-01-14T00:19:25.356Z,10.99
2018-01-14T00:20:25.818Z,10.98
2018-01-14T00:21:26.293Z,10.99
2018-01-14T00:22:26.767Z,10.98
2018-01-14T00:23:27.233Z,10.99
2018-01-14T00:24:27.704Z,10.99
2018-01-14T00:27:29.109Z,10.98
2018-01-14T00:28:29.585Z,10.96
2018-01-14T00:29:30.058Z,10.98
2018-01-14T00:30:30.525Z,10.96
2018-01-14T00:31:30.998Z,10.96
2018-01-14T00:32:31.468Z,10.94
2018-01-14T00:33:31.939Z,10.95
2018-01-14T00:34:32.412Z,10.94
2018-01-14T00:35:32.878Z,10.91
2018-01-14T00:36:33.350Z,10.91
2018-01-14T00:37:33.824Z,10.92
2018-01-14T00:38:34.283Z,10.92
2018-01-14T00:39:34.761Z,10.90
2018-01-14T00:40:35.232Z,10.89
2018-01-14T00:41:35.701Z,10.87
2018-01-14T00:42:36.171Z,10.86
2018-01-14T00:43:36.641Z,10.87
2018-01-14T00:44:37.113Z,10.85
2018-01-14T00:45:37.577Z,10.87
2018-01-14T00:46:38.053Z,10.85
2018-01-14T00:47:38.522Z,10.85
2018-01-14T00:48:38.993Z,10.84
2018-01-14T00:49:39.463Z,10.83
2018-01-14T00:50:39.938Z,10.82
2018-01-14T00:51:40.404Z,10.82
2018-01-14T00:53:41.346Z,10.83
2018-01-14T00:54:41.816Z,10.83
2018-01-14T00:55:42.287Z,10.82
2018-01-14T00:56:42.750Z,10.81
2018-01-14T00:58:43.695Z,10.80
2018-01-14T00:59:44.166Z,10.81
2018-01-14T01:00:44.632Z,10.80
2018-01-14T01:01:45.108Z,10.80
2018-01-14T01:02:45.577Z,10.80
2018-01-14T01:03:46.047Z,10.79
2018-01-14T01:05:46.990Z,10.78
2018-01-14T01:07:47.923Z,10.77
2018-01-14T01:08:48.401Z,10.77
2018-01-14T01:09:48.870Z,10.77
2018-01-14T01:10:49.340Z,10.76
2018-01-14T01:11:49.808Z,10.75
2018-01-14T01:12:50.279Z,10.73
2018-01-14T01:13:50.750Z,10.71
2018-01-14T01:14:51.220Z,10.72
2018-01-14T01:15:51.691Z,10.70
2018-01-14T01:16:52.164Z,10.72
2018-01-14T01:17:52.631Z,10.69
2018-01-14T01:18:53.096Z,10.69
2018-01-14T01:20:54.043Z,10.67
2018-01-14T01:21:54.512Z,10.67
2018-01-14T01:22:54.981Z,10.65
2018-01-14T01:23:55.452Z,10.63
2018-01-14T01:24:55.923Z,10.64
2018-01-14T01:25:56.389Z,10.63
2018-01-14T01:26:56.861Z,10.61
2018-01-14T01:27:57.332Z,10.60
2018-01-14T01:28:57.803Z,10.62
2018-01-14T01:29:58.267Z,10.60
2018-01-14T01:30:58.743Z,10.60
2018-01-14T01:31:59.212Z,10.59
2018-01-14T01:32:59.684Z,10.57
2018-01-14T01:34:00.154Z,10.58
2018-01-14T01:35:00.622Z,10.56
2018-01-14T01:36:01.093Z,10.55
2018-01-14T01:37:01.562Z,10.54
2018-01-14T01:38:02.034Z,10.53
2018-01-14T01:39:02.504Z,10.53
2018-01-14T01:40:02.973Z,10.50
2018-01-14T01:41:03.446Z,10.52
2018-01-14T01:42:03.913Z,10.53
2018-01-14T01:43:04.384Z,10.52
2018-01-14T01:44:04.853Z,10.52
2018-01-14T01:45:05.322Z,10.52
2018-01-14T01:46:05.794Z,10.50
2018-01-14T01:47:06.263Z,10.49
2018-01-14T01:48:06.730Z,10.50
2018-01-14T01:50:07.672Z,10.46
2018-01-14T01:51:08.142Z,10.46
2018-01-14T01:52:08.611Z,10.46
2018-01-14T01:53:21.322Z,10.46
2018-01-14T01:54:09.553Z,10.44
2018-01-14T01:55:10.022Z,10.46
2018-01-14T01:56:10.492Z,10.45
2018-01-14T01:57:10.961Z,10.43
2018-01-14T01:58:11.432Z,10.43
2018-01-14T01:59:11.901Z,10.42
2018-01-14T02:00:12.371Z,10.42
2018-01-14T02:01:12.841Z,10.41
2018-01-14T02:02:13.310Z,10.42
2018-01-14T02:03:13.779Z,10.41
2018-01-14T02:04:14.249Z,10.41
2018-01-14T02:05:14.720Z,10.41
2018-01-14T02:06:15.185Z,10.40
2018-01-14T02:07:15.660Z,10.41
2018-01-14T02:08:16.128Z,10.41
2018-01-14T02:09:16.600Z,10.39
2018-01-14T02:10:17.064Z,10.38
2018-01-14T02:11:17.538Z,10.36
2018-01-14T02:12:18.009Z,10.37
2018-01-14T02:13:18.477Z,10.37
2018-01-14T02:14:18.947Z,10.36
2018-01-14T02:15:19.416Z,10.37
2018-01-14T02:16:19.886Z,10.36
2018-01-14T02:17:20.354Z,10.37
2018-01-14T02:18:20.828Z,10.36
2018-01-14T02:19:21.296Z,10.33
2018-01-14T02:20:21.766Z,10.32
2018-01-14T02:21:22.230Z,10.33
2018-01-14T02:22:22.705Z,10.33
2018-01-14T02:23:23.175Z,10.33
2018-01-14T02:26:24.586Z,10.32
2018-01-14T02:28:25.518Z,10.32
2018-01-14T02:29:25.993Z,10.29
2018-01-14T02:30:26.465Z,10.28
2018-01-14T02:31:26.931Z,10.26
2018-01-14T02:32:27.401Z,10.27
2018-01-14T02:34:28.342Z,10.26
2018-01-14T02:35:28.809Z,10.25
2018-01-14T02:36:29.282Z,10.25
2018-01-14T02:37:29.749Z,10.24
2018-01-14T02:38:30.220Z,10.22
2018-01-14T02:39:30.682Z,10.22
2018-01-14T02:40:31.162Z,10.22
2018-01-14T02:41:31.627Z,10.23
2018-01-14T02:42:32.099Z,10.21
2018-01-14T02:43:32.567Z,10.21
2018-01-14T02:44:33.039Z,10.19
2018-01-14T02:45:33.502Z,10.21
2018-01-14T02:46:33.971Z,10.20
2018-01-14T02:47:34.438Z,10.20
2018-01-14T02:48:34.910Z,10.19
2018-01-14T02:49:35.379Z,10.17
2018-01-14T02:50:35.849Z,10.17
2018-01-14T02:51:36.319Z,10.16
2018-01-14T02:52:36.793Z,10.18
2018-01-14T02:53:37.265Z,10.16
2018-01-14T02:54:37.725Z,10.13
2018-01-14T02:55:38.195Z,10.11
2018-01-14T02:56:38.667Z,10.12
2018-01-14T02:57:39.136Z,10.11
2018-01-14T02:58:39.606Z,10.11
2018-01-14T02:59:40.074Z,10.11
2018-01-14T03:00:40.543Z,10.09
2018-01-14T03:01:41.015Z,10.09
2018-01-14T03:02:41.486Z,10.07
2018-01-14T03:04:42.425Z,10.05
2018-01-14T03:05:42.902Z,10.07
2018-01-14T03:06:43.365Z,10.05
2018-01-14T03:07:43.833Z,10.06
2018-01-14T03:08:44.303Z,10.03
2018-01-14T03:09:44.772Z,10.03
2018-01-14T03:10:45.243Z,10.03
2018-01-14T03:11:45.711Z,10.04
2018-01-14T03:12:46.182Z,10.03
2018-01-14T03:13:46.652Z,10.02
2018-01-14T03:14:47.122Z,10.04
2018-01-14T03:15:47.587Z,10.04
2018-01-14T03:16:48.057Z,10.02
2018-01-14T03:17:48.528Z,10.00
2018-01-14T03:18:48.999Z,10.01
2018-01-14T03:19:49.460Z,10.00
2018-01-14T03:20:49.938Z,10.01
2018-01-14T03:21:50.403Z,10.00
2018-01-14T03:22:50.878Z,10.01
2018-01-14T03:23:51.342Z,9.99
2018-01-14T03:24:51.813Z,10.01
2018-01-14T03:25:52.281Z,9.99
2018-01-14T03:26:52.751Z,9.98
2018-01-14T03:28:53.689Z,9.95
2018-01-14T03:29:54.163Z,9.94
2018-01-14T03:30:54.629Z,9.93
2018-01-14T03:31:55.090Z,9.97
2018-01-14T03:32:55.564Z,9.94
2018-01-14T03:33:56.034Z,9.94
2018-01-14T03:34:56.504Z,9.92
2018-01-14T03:35:56.975Z,9.92
2018-01-14T03:36:57.438Z,9.91
2018-01-14T03:37:57.916Z,9.90
2018-01-14T03:38:58.380Z,9.89
2018-01-14T03:40:10.435Z,9.90
2018-01-14T03:40:59.319Z,9.89
2018-01-14T03:41:59.787Z,9.89
2018-01-14T03:43:00.258Z,9.88
2018-01-14T03:44:00.722Z,9.88
2018-01-14T03:45:01.196Z,9.88
2018-01-14T03:46:01.666Z,9.87
2018-01-14T03:47:02.137Z,9.88
2018-01-14T03:48:02.605Z,9.86
2018-01-14T03:49:03.071Z,9.87
2018-01-14T03:50:03.541Z,9.86
2018-01-14T03:51:04.007Z,9.85
2018-01-14T03:52:04.480Z,9.82
2018-01-14T03:54:05.419Z,9.83
2018-01-14T03:55:05.883Z,9.83
2018-01-14T03:56:06.355Z,9.82
2018-01-14T03:57:06.825Z,9.81
2018-01-14T03:58:07.301Z,9.79
2018-01-14T03:59:07.763Z,9.79
2018-01-14T04:00:08.233Z,9.78
2018-01-14T04:02:09.165Z,9.76
2018-01-14T04:03:09.640Z,9.77
2018-01-14T04:04:10.108Z,9.77
2018-01-14T04:05:10.577Z,9.77
2018-01-14T04:06:11.046Z,9.75
2018-01-14T04:07:11.516Z,9.73
2018-01-14T04:08:11.985Z,9.73
2018-01-14T04:09:12.456Z,9.73
2018-01-14T04:10:12.923Z,9.75
2018-01-14T04:12:13.861Z,9.73
2018-01-14T04:13:14.326Z,9.74
2018-01-14T04:14:14.798Z,9.73
2018-01-14T04:15:15.269Z,9.71
2018-01-14T04:16:15.737Z,9.70
2018-01-14T04:17:16.204Z,9.68
2018-01-14T04:18:16.675Z,9.68
2018-01-14T04:19:17.138Z,9.67
2018-01-14T04:20:17.611Z,9.66
2018-01-14T04:21:18.081Z,9.65
2018-01-14T04:22:18.549Z,9.64
2018-01-14T04:23:19.014Z,9.66
2018-01-14T04:24:19.487Z,9.67
2018-01-14T04:25:31.442Z,9.67
2018-01-14T04:26:20.436Z,9.66
2018-01-14T04:27:20.893Z,9.67
2018-01-14T04:28:21.359Z,9.67
2018-01-14T04:29:21.832Z,9.66
2018-01-14T04:30:22.301Z,9.67
2018-01-14T04:31:22.770Z,9.67
2018-01-14T04:32:23.237Z,9.65
2018-01-14T04:33:23.706Z,9.64
2018-01-14T04:34:24.177Z,9.64
2018-01-14T04:35:24.646Z,9.65
2018-01-14T04:36:25.115Z,9.65
2018-01-14T04:37:25.578Z,9.65
2018-01-14T04:38:26.052Z,9.64
2018-01-14T04:40:26.988Z,9.63
2018-01-14T04:41:27.491Z,9.63
2018-01-14T04:43:28.391Z,9.64
2018-01-14T04:44:28.864Z,9.64
2018-01-14T04:45:29.332Z,9.62
2018-01-14T04:46:29.802Z,9.62
2018-01-14T04:47:30.273Z,9.63
2018-01-14T04:48:30.739Z,9.62
2018-01-14T04:49:31.209Z,9.64
2018-01-14T04:50:31.677Z,9.63
2018-01-14T04:51:32.147Z,9.62
2018-01-14T04:52:32.633Z,9.63
2018-01-14T04:53:33.084Z,9.64
2018-01-14T04:55:34.024Z,9.60
2018-01-14T04:56:34.490Z,9.60
2018-01-14T04:57:34.960Z,9.60
2018-01-14T04:59:35.894Z,9.58
2018-01-14T05:00:36.417Z,9.56
2018-01-14T05:01:36.835Z,9.56
2018-01-14T05:02:37.303Z,9.59
2018-01-14T05:03:37.772Z,9.57
2018-01-14T05:04:38.241Z,9.58
2018-01-14T05:07:39.646Z,9.58
2018-01-14T05:08:40.117Z,9.55
2018-01-14T05:09:40.579Z,9.53
2018-01-14T05:10:41.053Z,9.53
2018-01-14T05:11:41.523Z,9.51
2018-01-14T05:12:41.991Z,9.49
2018-01-14T05:13:42.455Z,9.48
2018-01-14T05:14:42.929Z,9.48
2018-01-14T05:15:43.398Z,9.51
2018-01-14T05:16:43.865Z,9.49
2018-01-14T05:17:44.334Z,9.46
2018-01-14T05:18:45.008Z,9.46
2018-01-14T05:19:45.276Z,9.42
2018-01-14T05:20:45.736Z,9.39
2018-01-14T05:21:46.209Z,9.40
2018-01-14T05:22:46.677Z,9.38
2018-01-14T05:23:47.141Z,9.38
2018-01-14T05:24:47.615Z,9.38
2018-01-14T05:25:48.083Z,9.37
2018-01-14T05:26:48.549Z,9.37
2018-01-14T05:28:49.490Z,9.34
2018-01-14T05:29:49.957Z,9.35
2018-01-14T05:30:50.426Z,9.35
2018-01-14T05:32:02.525Z,9.36
2018-01-14T05:32:51.362Z,9.37
2018-01-14T05:33:51.833Z,9.37
2018-01-14T05:34:52.297Z,9.38
2018-01-14T05:35:52.770Z,9.35
2018-01-14T05:36:53.238Z,9.36
2018-01-14T05:37:53.708Z,9.34
2018-01-14T05:38:54.171Z,9.34
2018-01-14T05:39:54.645Z,9.32
2018-01-14T05:40:55.115Z,9.31
2018-01-14T05:41:55.579Z,9.31
2018-01-14T05:42:56.054Z,9.30
2018-01-14T05:43:56.513Z,9.26
2018-01-14T05:44:56.987Z,9.27
2018-01-14T05:45:57.453Z,9.26
2018-01-14T05:46:57.923Z,9.27
2018-01-14T05:47:58.393Z,9.26
2018-01-14T05:48:58.854Z,9.26
2018-01-14T05:50:59.798Z,9.25
2018-01-14T05:52:11.547Z,9.26
2018-01-14T05:53:00.734Z,9.25
2018-01-14T05:54:01.202Z,9.23
2018-01-14T05:55:01.671Z,9.25
2018-01-14T05:56:02.139Z,9.24
2018-01-14T05:57:02.607Z,9.23
2018-01-14T05:58:03.076Z,9.22
2018-01-14T05:59:03.540Z,9.19
2018-01-14T06:00:04.015Z,9.17
2018-01-14T06:01:04.481Z,9.17
2018-01-14T06:02:04.950Z,9.17
2018-01-14T06:03:05.413Z,9.17
2018-01-14T06:04:05.893Z,9.18
2018-01-14T06:05:06.354Z,9.16
2018-01-14T06:06:06.822Z,9.15
2018-01-14T06:07:07.290Z,9.18
2018-01-14T06:08:07.759Z,9.18
2018-01-14T06:09:08.227Z,9.16
2018-01-14T06:10:08.697Z,9.16
2018-01-14T06:12:09.632Z,9.11
2018-01-14T06:13:10.102Z,9.11
2018-01-14T06:14:10.569Z,9.08
2018-01-14T06:16:11.507Z,9.04
2018-01-14T06:17:11.973Z,9.02
2018-01-14T06:18:12.443Z,9.04
2018-01-14T06:19:12.910Z,9.02
2018-01-14T06:20:13.375Z,9.02
2018-01-14T06:21:13.846Z,9.01
2018-01-14T06:22:14.318Z,8.98
2018-01-14T06:23:14.785Z,8.98
2018-01-14T06:24:15.249Z,8.97
2018-01-14T06:25:15.720Z,8.94
2018-01-14T06:26:16.188Z,8.93
2018-01-14T06:27:16.656Z,8.93
2018-01-14T06:28:17.125Z,8.93
2018-01-14T06:29:17.592Z,8.92
2018-01-14T06:30:18.061Z,8.93
2018-01-14T06:31:18.531Z,8.92
2018-01-14T06:32:18.996Z,8.92
2018-01-14T06:33:19.466Z,8.90
2018-01-14T06:34:19.932Z,8.91
2018-01-14T06:35:20.401Z,8.89
2018-01-14T06:36:20.862Z,8.89
2018-01-14T06:38:21.805Z,8.85
2018-01-14T06:39:22.279Z,8.85
2018-01-14T06:40:22.735Z,8.85
2018-01-14T06:41:23.211Z,8.86
2018-01-14T06:42:23.676Z,8.86
2018-01-14T06:43:24.150Z,8.89
2018-01-14T06:44:24.614Z,8.88
2018-01-14T06:45:25.082Z,8.88
2018-01-14T06:46:25.548Z,8.88
2018-01-14T06:47:26.012Z,8.88
2018-01-14T06:48:26.485Z,8.86
2018-01-14T06:49:26.951Z,8.86
2018-01-14T06:51:27.887Z,8.83
2018-01-14T06:52:28.355Z,8.82
2018-01-14T06:53:28.823Z,8.80
2018-01-14T06:54:29.293Z,8.81
2018-01-14T06:55:29.760Z,8.82
2018-01-14T06:56:30.229Z,8.81
2018-01-14T06:57:30.691Z,8.78
2018-01-14T06:58:31.163Z,8.77
2018-01-14T06:59:31.627Z,8.75
2018-01-14T07:00:32.099Z,8.75
2018-01-14T07:01:32.565Z,8.76
2018-01-14T07:03:33.503Z,8.76
2018-01-14T07:04:33.972Z,8.76
2018-01-14T07:05:34.440Z,8.77
2018-01-14T07:06:34.900Z,8.78
2018-01-14T07:07:35.377Z,8.78
2018-01-14T07:08:35.843Z,8.79
2018-01-14T07:09:36.311Z,8.81
2018-01-14T07:10:36.772Z,8.85
2018-01-14T07:11:37.247Z,8.87
2018-01-14T07:12:37.715Z,8.91
2018-01-14T07:13:38.183Z,8.93
2018-01-14T07:14:38.649Z,8.95
2018-01-14T07:15:39.117Z,8.98
2018-01-14T07:16:39.585Z,9.01
2018-01-14T07:17:40.053Z,9.06
2018-01-14T07:19:40.986Z,9.14
2018-01-14T07:20:41.457Z,9.18
2018-01-14T07:21:41.926Z,9.23
2018-01-14T07:22:42.394Z,9.25
2018-01-14T07:23:42.856Z,9.32
2018-01-14T07:24:43.330Z,9.34
2018-01-14T07:25:43.798Z,9.40
2018-01-14T07:26:44.268Z,9.44
2018-01-14T07:27:44.735Z,9.51
2018-01-14T07:28:45.210Z,9.54
2018-01-14T07:29:45.671Z,9.61
2018-01-14T07:30:46.139Z,9.63
2018-01-14T07:31:46.608Z,9.69
2018-01-14T07:32:47.076Z,9.75
2018-01-14T07:33:47.541Z,9.79
2018-01-14T07:34:48.015Z,9.83
2018-01-14T07:35:48.476Z,9.87
2018-01-14T07:36:48.952Z,9.90
2018-01-14T07:37:49.418Z,9.95
2018-01-14T07:38:49.887Z,9.99
2018-01-14T07:39:50.356Z,10.03
2018-01-14T07:40:50.825Z,10.08
2018-01-14T07:41:51.294Z,10.13
2018-01-14T07:42:51.756Z,10.18
2018-01-14T07:43:52.232Z,10.23
2018-01-14T07:44:52.702Z,10.27
2018-01-14T07:45:53.168Z,10.31
2018-01-14T07:46:53.637Z,10.36
2018-01-14T07:47:54.107Z,10.41
2018-01-14T07:48:54.572Z,10.45
2018-01-14T07:52:56.452Z,10.64
2018-01-14T07:53:56.922Z,10.68
2018-01-14T07:54:57.389Z,10.70
2018-01-14T07:55:57.859Z,10.75
2018-01-14T07:56:58.330Z,10.80
2018-01-14T07:57:58.798Z,10.87
2018-01-14T07:58:59.268Z,10.88
2018-01-14T07:59:59.732Z,10.92
2018-01-14T08:01:00.207Z,10.97
2018-01-14T08:02:00.676Z,11.01
2018-01-14T08:03:01.145Z,11.06
2018-01-14T08:04:01.614Z,11.10
2018-01-14T08:05:02.086Z,11.15
2018-01-14T08:06:02.555Z,11.19
2018-01-14T08:07:03.021Z,11.24
2018-01-14T08:08:15.689Z,11.28
2018-01-14T08:09:03.963Z,11.32
2018-01-14T08:10:04.433Z,11.39
2018-01-14T08:11:04.904Z,11.42
2018-01-14T08:12:05.369Z,11.46
2018-01-14T08:13:05.843Z,11.51
2018-01-14T08:14:06.314Z,11.55
2018-01-14T08:15:06.782Z,11.59
2018-01-14T08:16:07.253Z,11.63
2018-01-14T08:17:07.723Z,11.67
2018-01-14T08:18:08.193Z,11.72
2018-01-14T08:19:08.660Z,11.77
2018-01-14T08:20:09.135Z,11.85
2018-01-14T08:21:09.604Z,11.87
2018-01-14T08:23:10.544Z,11.96
2018-01-14T08:24:11.015Z,11.99
2018-01-14T08:25:11.489Z,12.03
2018-01-14T08:26:11.955Z,12.07
2018-01-14T08:27:12.429Z,12.11
2018-01-14T08:29:13.370Z,12.21
2018-01-14T08:30:13.835Z,12.25
2018-01-14T08:31:14.311Z,12.29
2018-01-14T08:32:14.782Z,12.32
2018-01-14T08:34:15.723Z,12.41
2018-01-14T08:35:16.193Z,12.47
2018-01-14T08:36:16.665Z,12.52
2018-01-14T08:37:17.131Z,12.56
2018-01-14T08:38:17.658Z,12.59
2018-01-14T08:39:18.077Z,12.65
2018-01-14T08:40:18.552Z,12.69
2018-01-14T08:41:19.024Z,12.72
2018-01-14T08:42:19.495Z,12.77
2018-01-14T08:43:19.964Z,12.83
2018-01-14T08:44:20.436Z,12.84
2018-01-14T08:46:21.377Z,12.91
2018-01-14T08:47:21.850Z,12.95
2018-01-14T08:48:22.322Z,12.98
2018-01-14T08:49:22.794Z,13.02
2018-01-14T08:50:23.265Z,13.06
2018-01-14T08:51:23.738Z,13.08
2018-01-14T08:52:24.209Z,13.13
2018-01-14T08:53:24.683Z,13.17
2018-01-14T08:54:25.153Z,13.20
2018-01-14T08:55:25.624Z,13.24
2018-01-14T08:56:26.098Z,13.27
2018-01-14T08:57:26.568Z,13.30
2018-01-14T08:58:27.039Z,13.33
2018-01-14T08:59:27.511Z,13.37
2018-01-14T09:00:27.986Z,13.42
2018-01-14T09:01:28.456Z,13.45
2018-01-14T09:02:28.930Z,13.47
2018-01-14T09:03:29.402Z,13.50
2018-01-14T09:04:29.874Z,13.53
2018-01-14T09:05:30.347Z,13.58
2018-01-14T09:07:31.292Z,13.64
2018-01-14T09:08:31.764Z,13.67
2018-01-14T09:09:32.236Z,13.70
2018-01-14T09:10:32.707Z,13.73
2018-01-14T09:11:33.186Z,13.75
2018-01-14T09:12:33.656Z,13.78
2018-01-14T09:14:34.600Z,13.84
2018-01-14T09:15:35.072Z,13.86
2018-01-14T09:16:35.546Z,13.88
2018-01-14T09:17:36.014Z,13.91
2018-01-14T09:18:36.490Z,13.92
2018-01-14T09:19:36.964Z,13.95
2018-01-14T09:20:37.438Z,13.97
2018-01-14T09:21:37.909Z,13.99
2018-01-14T09:22:38.384Z,14.01
2018-01-14T09:23:38.859Z,14.03
2018-01-14T09:24:39.357Z,14.05
2018-01-14T09:25:39.803Z,14.08
2018-01-14T09:26:40.276Z,14.12
2018-01-14T09:28:41.217Z,14.15
2018-01-14T09:29:41.696Z,14.18
2018-01-14T09:30:42.212Z,14.21
2018-01-14T09:31:42.642Z,14.23
2018-01-14T09:32:43.116Z,14.25
2018-01-14T09:33:43.584Z,14.28
2018-01-14T09:34:44.062Z,14.30
2018-01-14T09:35:44.536Z,14.34
2018-01-14T09:36:45.013Z,14.37
2018-01-14T09:37:45.479Z,14.39
2018-01-14T09:38:45.957Z,14.42
2018-01-14T09:39:46.434Z,14.44
2018-01-14T09:40:46.904Z,14.48
2018-01-14T09:41:47.377Z,14.51
2018-01-14T09:42:47.851Z,14.54
2018-01-14T09:43:48.324Z,14.57
2018-01-14T09:44:48.793Z,14.59
2018-01-14T09:45:49.275Z,14.61
2018-01-14T09:46:49.745Z,14.64
2018-01-14T09:47:50.240Z,14.64
2018-01-14T09:48:50.693Z,14.65
2018-01-14T09:49:51.169Z,14.67
2018-01-14T09:50:51.640Z,14.68
2018-01-14T09:51:52.116Z,14.69
2018-01-14T09:52:52.592Z,14.71
2018-01-14T09:53:53.066Z,14.73
2018-01-14T09:54:53.537Z,14.75
2018-01-14T09:55:54.006Z,14.76
2018-01-14T09:56:54.487Z,14.76
2018-01-14T09:57:54.961Z,14.78
2018-01-14T10:00:07.748Z,14.82
2018-01-14T10:00:56.383Z,14.84
2018-01-14T10:01:56.857Z,14.86
2018-01-14T10:02:57.331Z,14.88
2018-01-14T10:03:57.804Z,14.90
2018-01-14T10:04:58.275Z,14.90
2018-01-14T10:05:58.755Z,14.92
2018-01-14T10:06:59.230Z,14.94
2018-01-14T10:07:59.703Z,14.97
2018-01-14T10:09:00.172Z,14.98
2018-01-14T10:12:01.601Z,15.01
2018-01-14T10:13:02.076Z,15.04
2018-01-14T10:14:02.550Z,15.06
2018-01-14T10:15:03.019Z,15.07
2018-01-14T10:16:03.498Z,15.09
2018-01-14T10:17:03.973Z,15.10
2018-01-14T10:18:04.449Z,15.12
2018-01-14T10:19:04.917Z,15.12
2018-01-14T10:20:05.398Z,15.12
2018-01-14T10:22:06.348Z,15.13
2018-01-14T10:23:06.822Z,15.15
2018-01-14T10:24:07.295Z,15.17
2018-01-14T10:26:08.241Z,15.18
2018-01-14T10:27:08.722Z,15.19
2018-01-14T10:28:09.198Z,15.19
2018-01-14T10:29:09.674Z,15.21
2018-01-14T10:30:10.145Z,15.24
2018-01-14T10:33:11.571Z,15.30
2018-01-14T10:34:12.047Z,15.31
2018-01-14T10:35:12.520Z,15.33
2018-01-14T10:36:12.996Z,15.34
2018-01-14T10:37:13.465Z,15.36
2018-01-14T10:38:13.945Z,15.37
2018-01-14T10:39:14.420Z,15.39
2018-01-14T10:40:14.898Z,15.42
2018-01-14T10:41:15.371Z,15.43
2018-01-14T10:42:15.847Z,15.44
2018-01-14T10:43:16.322Z,15.45
2018-01-14T10:44:16.792Z,15.47
2018-01-14T10:45:17.272Z,15.49
2018-01-14T10:46:17.748Z,15.50
2018-01-14T10:47:18.230Z,15.51
2018-01-14T10:48:18.694Z,15.53
2018-01-14T10:49:19.168Z,15.55
2018-01-14T10:50:19.650Z,15.58
2018-01-14T10:51:20.125Z,15.59
2018-01-14T10:52:20.599Z,15.61
2018-01-14T10:53:21.070Z,15.65
2018-01-14T10:54:21.552Z,15.65
2018-01-14T10:55:22.027Z,15.68
2018-01-14T10:56:22.501Z,15.68
2018-01-14T10:57:22.977Z,15.68
2018-01-14T10:58:23.455Z,15.69
2018-01-14T10:59:23.929Z,15.70
2018-01-14T11:00:24.402Z,15.71
2018-01-14T11:01:24.879Z,15.74
2018-01-14T11:02:25.355Z,15.76
2018-01-14T11:03:25.832Z,15.75
2018-01-14T11:04:26.305Z,15.76
2018-01-14T11:05:26.782Z,15.78
2018-01-14T11:06:27.259Z,15.80
2018-01-14T11:07:27.733Z,15.81
2018-01-14T11:08:28.212Z,15.80
2018-01-14T11:09:28.685Z,15.80
2018-01-14T11:10:29.164Z,15.83
2018-01-14T11:11:29.639Z,15.84
2018-01-14T11:12:30.110Z,15.84
2018-01-14T11:13:30.590Z,15.85
2018-01-14T11:14:31.066Z,15.83
2018-01-14T11:15:31.541Z,15.80
2018-01-14T11:16:32.014Z,15.74
2018-01-14T11:18:32.970Z,15.58
2018-01-14T11:19:33.444Z,15.47
2018-01-14T11:20:33.915Z,15.33
2018-01-14T11:21:34.399Z,15.19
2018-01-14T11:22:34.871Z,15.04
2018-01-14T11:23:35.350Z,14.88
2018-01-14T11:24:35.824Z,14.73
2018-01-14T11:25:36.292Z,14.56
2018-01-14T11:26:36.773Z,14.41
2018-01-14T11:27:37.248Z,14.25
2018-01-14T11:28:37.721Z,14.08
2018-01-14T11:29:38.197Z,13.92
2018-01-14T11:31:39.143Z,13.58
2018-01-14T11:32:39.619Z,13.44
2018-01-14T11:33:40.091Z,13.30
2018-01-14T11:34:40.565Z,13.19
2018-01-14T11:35:41.032Z,13.09
2018-01-14T11:36:41.510Z,13.02
2018-01-14T11:37:41.983Z,12.94
2018-01-14T11:38:42.455Z,12.89
2018-01-14T11:40:43.400Z,12.85
2018-01-14T11:42:44.346Z,12.89
2018-01-14T11:43:44.814Z,12.93
2018-01-14T11:44:45.287Z,12.97
2018-01-14T11:45:45.759Z,13.04
2018-01-14T11:46:46.233Z,13.10
2018-01-14T11:47:46.703Z,13.17
2018-01-14T11:48:47.176Z,13.25
2018-01-14T11:49:47.645Z,13.32
2018-01-14T11:50:48.117Z,13.41
2018-01-14T11:52:49.057Z,13.59
2018-01-14T11:54:50.005Z,13.76
2018-01-14T11:55:50.472Z,13.85
2018-01-14T11:57:02.884Z,13.93
2018-01-14T11:57:51.420Z,14.00
2018-01-14T11:58:51.893Z,14.07
2018-01-14T11:59:52.366Z,14.15
2018-01-14T12:00:52.839Z,14.22
2018-01-14T12:01:53.309Z,14.29
2018-01-14T12:02:53.776Z,14.35
2018-01-14T12:03:54.255Z,14.42
2018-01-14T12:04:54.720Z,14.49
2018-01-14T12:05:55.198Z,14.55
2018-01-14T12:06:55.672Z,14.60
2018-01-14T12:07:56.144Z,14.65
2018-01-14T12:08:56.614Z,14.71
2018-01-14T12:09:57.092Z,14.77
2018-01-14T12:10:57.564Z,14.82
2018-01-14T12:11:58.039Z,14.86
2018-01-14T12:12:58.508Z,14.90
2018-01-14T12:13:58.981Z,14.96
2018-01-14T12:15:59.922Z,15.04
2018-01-14T12:17:00.401Z,15.09
2018-01-14T12:18:00.877Z,15.13
2018-01-14T12:19:01.346Z,15.17
2018-01-14T12:20:01.828Z,15.20
2018-01-14T12:21:02.298Z,15.22
2018-01-14T12:22:02.772Z,15.26
2018-01-14T12:23:03.244Z,15.28
2018-01-14T12:25:04.195Z,15.31
2018-01-14T12:26:04.666Z,15.30
2018-01-14T12:27:05.139Z,15.32
2018-01-14T12:28:05.613Z,15.35
2018-01-14T12:29:06.087Z,15.37
2018-01-14T12:30:06.562Z,15.38
2018-01-14T12:31:07.031Z,15.40
2018-01-14T12:32:07.510Z,15.42
2018-01-14T12:33:07.986Z,15.42
2018-01-14T12:34:08.459Z,15.45
2018-01-14T12:35:08.934Z,15.47
2018-01-14T12:37:09.883Z,15.49
2018-01-14T12:38:10.351Z,15.52
2018-01-14T12:39:10.831Z,15.52
2018-01-14T12:40:11.306Z,15.53
2018-01-14T12:41:11.781Z,15.55
2018-01-14T12:42:12.260Z,15.54
2018-01-14T12:43:12.729Z,15.53
2018-01-14T12:44:13.206Z,15.53
2018-01-14T12:45:13.679Z,15.53
2018-01-14T12:46:14.155Z,15.52
2018-01-14T12:47:14.630Z,15.52
2018-01-14T12:48:15.103Z,15.53
2018-01-14T12:49:15.579Z,15.54
2018-01-14T12:50:16.053Z,15.54
2018-01-14T12:51:16.529Z,15.54
2018-01-14T12:53:17.477Z,15.57
2018-01-14T12:54:17.952Z,15.57
2018-01-14T12:55:18.424Z,15.58
2018-01-14T12:56:18.902Z,15.61
2018-01-14T12:57:19.377Z,15.61
2018-01-14T12:58:19.854Z,15.62
2018-01-14T12:59:20.327Z,15.62
2018-01-14T13:00:20.803Z,15.61
2018-01-14T13:01:21.277Z,15.61
2018-01-14T13:02:21.803Z,15.62
2018-01-14T13:03:22.227Z,15.62
2018-01-14T13:04:22.706Z,15.63
2018-01-14T13:05:23.179Z,15.61
2018-01-14T13:06:23.648Z,15.60
2018-01-14T13:07:24.127Z,15.61
2018-01-14T13:08:24.602Z,15.60
2018-01-14T13:09:25.079Z,15.59
2018-01-14T13:10:25.552Z,15.57
2018-01-14T13:11:26.029Z,15.57
2018-01-14T13:12:26.504Z,15.56
2018-01-14T13:13:26.978Z,15.55
2018-01-14T13:14:27.451Z,15.55
2018-01-14T13:15:27.973Z,15.53
2018-01-14T13:16:28.401Z,15.51
2018-01-14T13:17:28.878Z,15.51
2018-01-14T13:19:29.827Z,15.49
2018-01-14T13:21:30.778Z,15.46
2018-01-14T13:22:31.254Z,15.46
2018-01-14T13:23:31.730Z,15.44
2018-01-14T13:24:32.198Z,15.42
2018-01-14T13:25:32.684Z,15.41
2018-01-14T13:26:33.155Z,15.40
2018-01-14T13:27:33.627Z,15.37
2018-01-14T13:28:34.102Z,15.36
2018-01-14T13:29:34.578Z,15.38
2018-01-14T13:30:35.053Z,15.36
2018-01-14T13:31:35.522Z,15.35
2018-01-14T13:32:36.003Z,15.33
2018-01-14T13:33:36.478Z,15.31
2018-01-14T13:34:36.955Z,15.29
2018-01-14T13:35:37.428Z,15.29
2018-01-14T13:36:37.905Z,15.26
2018-01-14T13:37:38.380Z,15.27
2018-01-14T13:38:38.853Z,15.25
2018-01-14T13:39:39.334Z,15.23
2018-01-14T13:40:39.797Z,15.22
2018-01-14T13:41:40.277Z,15.21
2018-01-14T13:43:41.229Z,15.18
2018-01-14T13:44:41.704Z,15.16
2018-01-14T13:45:42.177Z,15.15
2018-01-14T13:46:42.651Z,15.13
2018-01-14T13:47:43.227Z,15.13
2018-01-14T13:48:43.603Z,15.11
2018-01-14T13:49:44.075Z,15.10
2018-01-14T13:50:44.546Z,15.09
2018-01-14T13:51:45.026Z,15.07
2018-01-14T13:52:45.501Z,15.06
2018-01-14T13:53:45.976Z,15.05
2018-01-14T13:54:46.451Z,15.03
2018-01-14T13:55:46.932Z,15.01
2018-01-14T13:56:47.400Z,15.00
2018-01-14T13:58:48.350Z,14.99
2018-01-14T13:59:48.826Z,14.99
2018-01-14T14:00:49.299Z,14.97
2018-01-14T14:01:49.767Z,14.97
2018-01-14T14:02:50.250Z,14.95
2018-01-14T14:03:50.726Z,14.93
2018-01-14T14:04:51.199Z,14.92
2018-01-14T14:05:51.666Z,14.89
2018-01-14T14:06:52.147Z,14.87
2018-01-14T14:07:52.624Z,14.85
2018-01-14T14:08:53.096Z,14.82
2018-01-14T14:09:53.573Z,14.81